Hagerstown Regional Richard A Henson Field Hagerstown US
ICAO: KHGR
IATA: HGR
Category: Medium
Scheduled Services: No

Elevation: 703 ft
TransAlt. 18000 ft.

Airport Communications:
ASOS:126.375
WASHINGTON CNTR:134.15
CTAF:120.3
GND:121.9
AR OPS:32.3
LEESBURG RDO:109.8
TWR:120.3
UNICOM:122.95

KHGR Zoom In..

Runways:

(A) RW 02 length 3165 ft width 100 ft
---- / hdg 26

(B) RW 09 length 7000 ft width 150 ft
ILS 111.90 / hdg 92

(C) RW 20 length 3165 ft width 100 ft
---- / hdg 206

(D) RW 27 length 7000 ft width 150 ft
ILS 111.90 / hdg 272

Location; KHGR
Day. 06 / Time. 06.53 Zulu
* Altimeter: 29.86
* Temperature: 21° c. 69.8°f.
* Wind from: 180° Speed 03 kn.
Dewpoint: 21° c.
Visibility: 1/2 Statute Miles.
Conditions: Fog.

KHGR 060653Z AUTO 18003KT 1/2SM FG VV002 21/21 A2986 RMK AO2 SLP116 T02110206


Wind From 180°
Speed 03 kn.

 
 
jpsmedia worldairports.se 2020   terms of use